CheckWX is a tool to help pilots better visualize weather data.  It is not intended as a substitute for an official pre-flight weather briefing.

04:34:27 UTC

ESNV METAR
Vilhelmina Airport
Sweden
Current

14 mins ago

ESNV 240420Z AUTO VRB01KT 9999 SCT075/// OVC098/// 13/11 Q1017
Observed
Jul-24 @ 04:20 UTC
Wind
  • Variable at 1 KTS
Visibility
10,000+ meters
Flight Rules
VFR
Cloud Levels
  • Scattered at 7,500' AGL
  • Overcast at 9,800' AGL
Temperature
13°C / 55°F
Dewpoint
11°C / 52°F
Humidity
88%
Altimeter
30.03" Hg
Pressure
1016.92 hPa
Previous

44 mins ago

ESNV 240350Z AUTO 00000KT 9999 OVC098/// 12/10 Q1017
Observed
Jul-24 @ 03:50 UTC
Visibility
10,000+ meters
Flight Rules
VFR
Cloud Levels
  • Overcast at 9,800' AGL
Temperature
12°C / 54°F
Dewpoint
10°C / 50°F
Humidity
88%
Altimeter
30.03" Hg
Pressure
1016.92 hPa
Previous

1 hour ago

ESNV 240320Z AUTO 00000KT 9999 OVC100/// 11/09 Q1017
Observed
Jul-24 @ 03:20 UTC
Visibility
10,000+ meters
Flight Rules
VFR
Cloud Levels
  • Overcast at 10,000' AGL
Temperature
11°C / 52°F
Dewpoint
C / 48°F
Humidity
88%
Altimeter
30.03" Hg
Pressure
1016.92 hPa